Delphos, Ohio
Current Conditions -  °F | °C
As of 1:53 PM on Friday 28 Nov 2014 (Local Time) from KAOH Reporting Station
Overcast Overcast  
Wind Chill: 21°   Ceiling: 5000
Heat Index: 30°   Visibility: 10mi
Dew Point: 17°   Wind: 12mph
Humidity: 59%   Direction: 200°SSW
Pressure: 30.22"   Gusts: NA
Location:  40.84°N, 84.34°W
Report Text: KAOH 281853Z AUTO 20010KT 10SM BKN050 OVC075 M01/M08 A3022 RMK AO2 SLP246 T10111083
Loading
Personal Weather Stations






























Interactive Weather Map New forecast layout! Learn more

10-Day Weather Forecast

Advertisements
Track Severe Weather on mobile